Terminal Aerodrome Forecast
Issued by NWS

Home | Current Version | Previous Version | Text Only | Print | Product List | Glossary On
Versions: 1 2 3 4 5 6 7 8 9 10 11 12 13 14 15 16 17 18 19 20 21 22 23 24 25 26 27 28 29 30 31 32 33 34
000
FTUS41 KCTP 190941 AAB
TAFJST
TAF AMD
KJST 190941Z 1910/2006 27010KT 1/4SM FG OVC002
     FM191300 27008KT 3SM BR OVC005
     FM191600 27007KT P6SM OVC009
     FM191900 27007KT P6SM SCT015
     FM200100 14006KT P6SM SKC=

USA.gov is the U.S. government's official web portal to all federal, state and local government web resources and services.